createdAt,value
2022-08-02T00:00:35.982Z,3.50
2022-08-02T00:03:04.107Z,2.90
2022-08-02T00:05:32.278Z,3.07
2022-08-02T00:08:00.465Z,3.37
2022-08-02T00:10:28.731Z,3.10
2022-08-02T00:12:59.120Z,2.80
2022-08-02T00:15:28.923Z,2.63
2022-08-02T00:17:57.117Z,3.00
2022-08-02T00:20:25.264Z,2.90
2022-08-02T00:22:53.367Z,3.03
2022-08-02T00:25:21.569Z,2.60
2022-08-02T00:27:49.694Z,3.20
2022-08-02T00:30:17.856Z,3.07
2022-08-02T00:32:47.377Z,3.30
2022-08-02T00:35:16.219Z,3.13
2022-08-02T00:37:44.488Z,3.03
2022-08-02T00:40:13.452Z,3.00
2022-08-02T00:42:42.303Z,3.13
2022-08-02T00:45:11.113Z,2.83
2022-08-02T00:47:39.250Z,3.67
2022-08-02T00:50:09.729Z,3.13
2022-08-02T00:52:37.839Z,3.30
2022-08-02T00:55:06.928Z,3.20
2022-08-02T00:57:35.045Z,3.60
2022-08-02T01:00:03.262Z,3.13
2022-08-02T01:02:31.565Z,3.47
2022-08-02T01:04:59.781Z,3.43
2022-08-02T01:07:29.400Z,2.87
2022-08-02T01:09:57.569Z,2.80
2022-08-02T01:12:25.819Z,3.23
2022-08-02T01:14:57.868Z,3.70
2022-08-02T01:17:33.744Z,3.00
2022-08-02T01:20:10.494Z,3.70
2022-08-02T01:23:04.383Z,3.20
2022-08-02T01:25:54.520Z,3.73
2022-08-02T01:28:37.111Z,2.90
2022-08-02T01:31:13.693Z,3.30
2022-08-02T01:33:46.914Z,3.17
2022-08-02T01:36:18.713Z,3.70
2022-08-02T01:38:50.350Z,3.80
2022-08-02T01:41:22.717Z,3.30
2022-08-02T01:43:57.896Z,3.60
2022-08-02T01:46:28.109Z,3.40
2022-08-02T01:48:58.404Z,4.97
2022-08-02T01:51:43.120Z,4.20
2022-08-02T01:54:16.498Z,3.60
2022-08-02T01:56:46.575Z,3.90
2022-08-02T01:59:20.326Z,4.20
2022-08-02T02:01:50.787Z,4.83
2022-08-02T02:04:20.902Z,3.80
2022-08-02T02:06:50.391Z,3.70
2022-08-02T02:09:19.423Z,3.73
2022-08-02T02:12:06.050Z,4.10
2022-08-02T02:14:40.659Z,3.60
2022-08-02T02:18:10.704Z,3.80
2022-08-02T02:20:01.368Z,4.27
2022-08-02T02:22:29.492Z,4.60
2022-08-02T02:24:57.742Z,5.37
2022-08-02T02:27:26.686Z,4.37
2022-08-02T02:29:57.700Z,4.43
2022-08-02T02:32:28.490Z,4.70
2022-08-02T02:34:57.756Z,4.33
2022-08-02T02:37:29.170Z,4.50
2022-08-02T02:39:59.219Z,4.33
2022-08-02T02:42:32.302Z,4.50
2022-08-02T02:45:04.368Z,4.00
2022-08-02T02:47:41.115Z,4.30
2022-08-02T02:50:11.942Z,4.50
2022-08-02T02:52:41.628Z,5.13
2022-08-02T02:55:11.281Z,5.00
2022-08-02T02:57:40.145Z,5.13
2022-08-02T03:00:12.273Z,4.93
2022-08-02T03:02:42.352Z,5.57
2022-08-02T03:05:12.971Z,4.73
2022-08-02T03:07:41.634Z,4.37
2022-08-02T03:10:11.337Z,4.93
2022-08-02T03:12:39.887Z,5.40
2022-08-02T03:15:13.547Z,5.27
2022-08-02T03:17:43.642Z,4.90
2022-08-02T03:20:14.070Z,5.80
2022-08-02T03:22:42.878Z,5.20
2022-08-02T03:25:12.073Z,4.83
2022-08-02T03:27:40.415Z,5.27
2022-08-02T03:30:12.132Z,4.93
2022-08-02T03:32:41.701Z,4.63
2022-08-02T03:35:13.309Z,4.67
2022-08-02T03:37:42.719Z,6.20
2022-08-02T03:40:13.851Z,4.93
2022-08-02T03:42:42.605Z,5.47
2022-08-02T03:45:14.768Z,4.60
2022-08-02T03:47:44.247Z,4.57
2022-08-02T03:50:13.855Z,4.37
2022-08-02T03:52:43.536Z,4.30
2022-08-02T03:55:12.561Z,4.40
2022-08-02T03:57:41.203Z,4.77
2022-08-02T04:00:14.072Z,4.37
2022-08-02T04:02:42.174Z,3.50
2022-08-02T04:05:10.578Z,3.70
2022-08-02T04:08:33.112Z,3.70
2022-08-02T04:10:27.430Z,3.53
2022-08-02T04:12:56.446Z,4.00
2022-08-02T04:15:26.218Z,4.17
2022-08-02T04:17:57.799Z,4.13
2022-08-02T04:20:30.830Z,3.73
2022-08-02T04:23:02.632Z,3.57
2022-08-02T04:25:34.351Z,3.77
2022-08-02T04:28:17.511Z,4.40
2022-08-02T04:30:48.251Z,3.83
2022-08-02T04:33:16.824Z,3.40
2022-08-02T04:35:45.379Z,3.43
2022-08-02T04:38:15.622Z,4.37
2022-08-02T04:40:52.564Z,5.00
2022-08-02T04:43:21.088Z,4.07
2022-08-02T04:45:52.414Z,4.40
2022-08-02T04:48:20.672Z,3.80
2022-08-02T04:50:49.096Z,4.57
2022-08-02T04:53:17.533Z,2.93
2022-08-02T04:55:45.782Z,4.77
2022-08-02T04:58:38.921Z,3.47
2022-08-02T05:01:04.094Z,4.00
2022-08-02T05:03:32.355Z,3.90
2022-08-02T05:06:00.673Z,4.40
2022-08-02T05:08:28.887Z,4.00
2022-08-02T05:10:57.012Z,5.93
2022-08-02T05:13:25.721Z,3.20
2022-08-02T05:15:53.916Z,4.03
2022-08-02T05:18:23.364Z,3.33
2022-08-02T05:20:54.055Z,2.90
2022-08-02T05:23:26.040Z,3.60
2022-08-02T05:25:54.275Z,3.27
2022-08-02T05:28:22.454Z,3.63
2022-08-02T05:30:50.544Z,4.07
2022-08-02T05:33:18.976Z,3.90
2022-08-02T05:35:48.537Z,3.70
2022-08-02T05:38:16.650Z,3.50
2022-08-02T05:40:54.296Z,3.70
2022-08-02T05:43:23.359Z,3.23
2022-08-02T05:45:53.663Z,3.50
2022-08-02T05:48:24.495Z,3.60
2022-08-02T05:51:06.284Z,3.00
2022-08-02T05:53:40.582Z,2.90
2022-08-02T05:56:19.601Z,3.10
2022-08-02T05:58:58.095Z,2.83
2022-08-02T06:01:30.219Z,2.80
2022-08-02T06:04:00.783Z,4.13
2022-08-02T06:06:33.431Z,3.03
2022-08-02T06:09:04.436Z,3.53
2022-08-02T06:11:37.280Z,2.63
2022-08-02T06:14:07.075Z,2.97
2022-08-02T06:16:41.922Z,3.13
2022-08-02T06:19:12.795Z,2.50
2022-08-02T06:22:36.111Z,3.10
2022-08-02T06:24:33.772Z,2.77
2022-08-02T06:27:03.460Z,2.90
2022-08-02T06:29:38.821Z,2.30
2022-08-02T06:32:09.844Z,2.50
2022-08-02T06:34:38.976Z,2.60
2022-08-02T06:37:20.667Z,2.57
2022-08-02T06:39:50.807Z,4.90
2022-08-02T06:42:27.562Z,2.50
2022-08-02T06:44:57.960Z,2.30
2022-08-02T06:47:27.161Z,2.00
2022-08-02T06:49:58.354Z,2.27
2022-08-02T06:52:30.260Z,2.77
2022-08-02T06:54:59.723Z,2.30
2022-08-02T06:57:28.674Z,2.37
2022-08-02T06:59:58.354Z,2.20
2022-08-02T07:02:26.577Z,2.33
2022-08-02T07:04:55.565Z,1.63
2022-08-02T07:07:23.910Z,2.30
2022-08-02T07:09:56.415Z,2.17
2022-08-02T07:12:30.083Z,2.33
2022-08-02T07:14:59.113Z,2.07
2022-08-02T07:17:27.686Z,2.63
2022-08-02T07:19:56.019Z,2.20
2022-08-02T07:22:24.623Z,2.53
2022-08-02T07:24:54.600Z,2.10
2022-08-02T07:27:22.988Z,2.10
2022-08-02T07:29:51.118Z,1.83
2022-08-02T07:32:20.523Z,2.60
2022-08-02T07:34:51.305Z,1.90
2022-08-02T07:37:53.550Z,2.10
2022-08-02T07:40:15.161Z,2.00
2022-08-02T07:42:49.373Z,2.00
2022-08-02T07:45:17.799Z,5.40
2022-08-02T07:47:46.451Z,1.80
2022-08-02T07:50:16.355Z,4.53
2022-08-02T07:52:45.923Z,1.50
2022-08-02T07:55:17.844Z,1.63
2022-08-02T07:57:47.133Z,2.30
2022-08-02T08:00:17.777Z,1.37
2022-08-02T08:02:47.139Z,1.80
2022-08-02T08:05:15.874Z,3.47
2022-08-02T08:07:44.208Z,2.10
2022-08-02T08:10:12.606Z,1.50
2022-08-02T08:12:42.119Z,2.63
2022-08-02T08:15:11.364Z,1.80
2022-08-02T08:17:39.838Z,1.80
2022-08-02T08:20:12.805Z,1.50
2022-08-02T08:22:43.545Z,1.63
2022-08-02T08:25:12.044Z,1.33
2022-08-02T08:27:49.327Z,1.60
2022-08-02T08:30:17.605Z,1.53
2022-08-02T08:32:46.433Z,1.37
2022-08-02T08:35:14.933Z,1.37
2022-08-02T08:37:43.336Z,3.40
2022-08-02T08:40:12.927Z,1.30
2022-08-02T08:42:42.460Z,1.40
2022-08-02T08:45:11.387Z,1.30
2022-08-02T08:47:40.986Z,1.27
2022-08-02T08:50:18.890Z,1.47
2022-08-02T08:52:54.734Z,1.50
2022-08-02T08:55:24.560Z,1.50
2022-08-02T08:57:55.951Z,1.30
2022-08-02T09:00:24.174Z,1.60
2022-08-02T09:02:52.487Z,1.60
2022-08-02T09:05:20.976Z,1.40
2022-08-02T09:07:50.141Z,1.40
2022-08-02T09:10:39.253Z,1.40
2022-08-02T09:13:38.954Z,1.00
2022-08-02T09:16:11.163Z,1.50
2022-08-02T09:18:41.541Z,1.30
2022-08-02T09:21:11.109Z,1.10
2022-08-02T09:23:40.946Z,1.50
2022-08-02T09:26:10.883Z,1.20
2022-08-02T09:28:42.566Z,1.50
2022-08-02T09:31:14.546Z,1.40
2022-08-02T09:33:44.239Z,1.50
2022-08-02T09:36:13.878Z,1.37
2022-08-02T09:38:52.831Z,1.20
2022-08-02T09:41:25.267Z,1.10
2022-08-02T09:44:04.363Z,1.90
2022-08-02T09:46:37.366Z,1.20
2022-08-02T09:49:08.240Z,1.50
2022-08-02T09:51:38.389Z,1.53
2022-08-02T09:54:09.426Z,1.50
2022-08-02T09:56:49.643Z,1.80
2022-08-02T09:59:20.946Z,1.60
2022-08-02T10:02:01.484Z,1.50
2022-08-02T10:04:52.048Z,1.70
2022-08-02T10:07:22.513Z,1.53
2022-08-02T10:09:51.903Z,1.50
2022-08-02T10:12:22.229Z,1.60
2022-08-02T10:14:52.840Z,2.77
2022-08-02T10:17:22.005Z,1.63
2022-08-02T10:20:02.372Z,1.80
2022-08-02T10:22:33.381Z,1.57
2022-08-02T10:25:04.668Z,1.30
2022-08-02T10:27:49.196Z,1.33
2022-08-02T10:30:25.896Z,1.60
2022-08-02T10:32:56.478Z,1.70
2022-08-02T10:35:26.962Z,1.60
2022-08-02T10:38:01.128Z,1.90
2022-08-02T10:40:44.654Z,1.20
2022-08-02T10:43:13.338Z,1.47
2022-08-02T10:45:44.189Z,1.83
2022-08-02T10:48:15.551Z,1.60
2022-08-02T10:50:56.872Z,1.50
2022-08-02T10:53:28.047Z,1.47
2022-08-02T10:55:58.667Z,1.40
2022-08-02T10:58:30.165Z,1.03
2022-08-02T11:01:04.248Z,1.80
2022-08-02T11:03:42.706Z,1.40
2022-08-02T11:06:24.986Z,1.50
2022-08-02T11:09:31.745Z,6.93
2022-08-02T11:12:05.373Z,2.17
2022-08-02T11:14:35.646Z,1.50
2022-08-02T11:17:13.660Z,1.80
2022-08-02T11:20:18.953Z,1.37
2022-08-02T11:22:50.240Z,1.33
2022-08-02T11:26:02.828Z,1.67
2022-08-02T11:28:26.280Z,1.20
2022-08-02T11:30:58.946Z,1.50
2022-08-02T11:33:34.010Z,1.43
2022-08-02T11:36:04.053Z,1.43
2022-08-02T11:38:32.242Z,1.13
2022-08-02T11:41:05.854Z,1.60
2022-08-02T11:43:34.819Z,1.40
2022-08-02T11:46:05.187Z,0.90
2022-08-02T11:48:36.971Z,1.50
2022-08-02T11:51:07.454Z,1.40
2022-08-02T11:53:50.165Z,0.90
2022-08-02T11:56:21.873Z,1.40
2022-08-02T11:59:07.498Z,1.27
2022-08-02T12:01:45.521Z,1.40
2022-08-02T12:04:22.768Z,1.20
2022-08-02T12:06:59.579Z,1.60
2022-08-02T12:09:29.195Z,1.33
2022-08-02T12:11:58.569Z,1.43
2022-08-02T12:14:28.957Z,1.37
2022-08-02T12:17:15.199Z,2.07
2022-08-02T12:19:45.509Z,1.83
2022-08-02T12:22:17.585Z,2.10
2022-08-02T12:24:48.034Z,2.10
2022-08-02T12:27:36.897Z,1.70
2022-08-02T12:30:10.214Z,1.50
2022-08-02T12:32:39.428Z,1.30
2022-08-02T12:35:11.909Z,1.57
2022-08-02T12:37:41.700Z,1.53
2022-08-02T12:40:25.442Z,2.27
2022-08-02T12:42:57.171Z,1.93
2022-08-02T12:45:26.716Z,1.80
2022-08-02T12:48:05.266Z,3.40
2022-08-02T12:50:37.421Z,2.00
2022-08-02T12:53:08.140Z,1.80
2022-08-02T12:55:59.231Z,1.43
2022-08-02T12:58:28.876Z,1.77
2022-08-02T13:00:59.913Z,2.20
2022-08-02T13:04:11.465Z,1.73
2022-08-02T13:06:43.098Z,1.43
2022-08-02T13:09:14.832Z,1.77
2022-08-02T13:11:43.963Z,2.20
2022-08-02T13:14:13.008Z,1.60
2022-08-02T13:16:42.532Z,1.60
2022-08-02T13:19:11.284Z,2.00
2022-08-02T13:22:02.690Z,1.73
2022-08-02T13:24:38.084Z,1.93
2022-08-02T13:27:08.621Z,1.70
2022-08-02T13:29:37.537Z,1.53
2022-08-02T13:32:05.922Z,1.83
2022-08-02T13:34:34.126Z,1.70
2022-08-02T13:37:04.607Z,1.47
2022-08-02T13:39:32.931Z,1.70
2022-08-02T13:42:01.053Z,2.20
2022-08-02T13:44:29.305Z,2.13
2022-08-02T13:46:57.452Z,2.17
2022-08-02T13:49:51.499Z,1.70
2022-08-02T13:52:15.770Z,1.60
2022-08-02T13:54:44.292Z,1.70
2022-08-02T13:57:12.409Z,2.20
2022-08-02T13:59:56.570Z,2.03
2022-08-02T14:02:28.161Z,2.00
2022-08-02T14:04:56.817Z,2.00
2022-08-02T14:07:26.334Z,3.43
2022-08-02T14:09:54.430Z,1.73
2022-08-02T14:12:22.532Z,1.63
2022-08-02T14:14:50.945Z,1.90
2022-08-02T14:17:19.793Z,2.13
2022-08-02T14:19:47.990Z,1.90
2022-08-02T14:22:16.124Z,1.90
2022-08-02T14:24:45.720Z,1.80
2022-08-02T14:27:13.852Z,1.83
2022-08-02T14:29:42.001Z,2.27
2022-08-02T14:32:10.856Z,2.33
2022-08-02T14:34:39.342Z,1.83
2022-08-02T14:37:07.466Z,2.00
2022-08-02T14:39:43.306Z,1.90
2022-08-02T14:42:25.167Z,1.80
2022-08-02T14:44:53.590Z,2.13
2022-08-02T14:47:21.678Z,1.63
2022-08-02T14:49:50.632Z,1.90
2022-08-02T14:52:19.317Z,2.43
2022-08-02T14:54:47.584Z,2.10
2022-08-02T14:57:15.844Z,2.30
2022-08-02T14:59:45.389Z,2.17
2022-08-02T15:02:14.465Z,2.40
2022-08-02T15:04:44.032Z,2.03
2022-08-02T15:07:15.326Z,1.97
2022-08-02T15:09:43.470Z,2.63
2022-08-02T15:12:12.741Z,2.70
2022-08-02T15:14:41.598Z,1.87
2022-08-02T15:17:11.793Z,2.03
2022-08-02T15:19:57.874Z,2.20
2022-08-02T15:22:28.968Z,1.80
2022-08-02T15:24:57.703Z,1.90
2022-08-02T15:27:26.223Z,2.47
2022-08-02T15:30:00.031Z,2.17
2022-08-02T15:32:29.918Z,2.00
2022-08-02T15:34:58.141Z,2.23
2022-08-02T15:37:30.835Z,2.17
2022-08-02T15:39:59.702Z,2.00
2022-08-02T15:42:30.597Z,2.17
2022-08-02T15:45:00.090Z,2.00
2022-08-02T15:47:29.666Z,2.57
2022-08-02T15:49:58.669Z,2.37
2022-08-02T15:52:27.654Z,2.17
2022-08-02T15:54:56.158Z,2.30
2022-08-02T15:57:24.292Z,2.23
2022-08-02T15:59:53.193Z,2.10
2022-08-02T16:02:21.529Z,2.43
2022-08-02T16:04:51.435Z,2.00
2022-08-02T16:07:19.553Z,2.53
2022-08-02T16:09:47.683Z,2.70
2022-08-02T16:12:16.245Z,2.60
2022-08-02T16:14:45.538Z,2.87
2022-08-02T16:17:13.658Z,2.20
2022-08-02T16:19:48.738Z,2.30
2022-08-02T16:22:18.840Z,1.93
2022-08-02T16:24:47.046Z,2.27
2022-08-02T16:27:15.624Z,2.30
2022-08-02T16:29:43.850Z,2.13
2022-08-02T16:32:12.506Z,2.40
2022-08-02T16:35:07.079Z,2.33
2022-08-02T16:37:50.273Z,2.50
2022-08-02T16:40:18.582Z,2.10
2022-08-02T16:42:48.783Z,2.20
2022-08-02T16:45:20.935Z,2.67
2022-08-02T16:47:57.408Z,2.80
2022-08-02T16:50:29.099Z,2.30
2022-08-02T16:52:59.375Z,3.73
2022-08-02T16:55:29.289Z,2.13
2022-08-02T16:58:00.454Z,1.77
2022-08-02T17:00:29.822Z,2.60
2022-08-02T17:02:59.536Z,1.97
2022-08-02T17:05:37.485Z,2.73
2022-08-02T17:08:17.185Z,2.00
2022-08-02T17:10:45.879Z,2.20
2022-08-02T17:13:14.529Z,2.47
2022-08-02T17:16:15.849Z,3.40
2022-08-02T17:18:33.133Z,2.87
2022-08-02T17:21:04.091Z,2.27
2022-08-02T17:24:04.248Z,2.97
2022-08-02T17:26:23.059Z,2.87
2022-08-02T17:29:18.053Z,3.43
2022-08-02T17:32:05.034Z,2.70
2022-08-02T17:34:36.307Z,2.70
2022-08-02T17:37:05.688Z,2.30
2022-08-02T17:39:44.157Z,2.53
2022-08-02T17:42:20.436Z,3.37
2022-08-02T17:44:52.740Z,2.53
2022-08-02T17:47:21.845Z,3.10
2022-08-02T17:49:50.168Z,5.80
2022-08-02T17:52:50.106Z,3.50
2022-08-02T17:55:13.355Z,4.27
2022-08-02T17:57:57.389Z,5.10
2022-08-02T18:00:33.690Z,2.47
2022-08-02T18:03:05.720Z,2.73
2022-08-02T18:05:39.096Z,2.70
2022-08-02T18:08:07.810Z,2.77
2022-08-02T18:10:37.443Z,2.90
2022-08-02T18:13:06.608Z,2.83
2022-08-02T18:15:35.936Z,2.27
2022-08-02T18:18:04.222Z,2.43
2022-08-02T18:20:32.367Z,2.20
2022-08-02T18:23:00.583Z,2.50
2022-08-02T18:25:37.013Z,2.90
2022-08-02T18:28:13.616Z,2.90
2022-08-02T18:30:41.800Z,3.20
2022-08-02T18:33:59.319Z,2.90
2022-08-02T18:35:58.102Z,2.80
2022-08-02T18:38:28.372Z,2.70
2022-08-02T18:40:58.760Z,2.50
2022-08-02T18:43:29.512Z,2.90
2022-08-02T18:46:07.035Z,3.03
2022-08-02T18:48:46.218Z,2.93
2022-08-02T18:51:16.091Z,3.60
2022-08-02T18:53:48.921Z,2.80
2022-08-02T18:56:19.829Z,2.70
2022-08-02T18:58:55.250Z,2.90
2022-08-02T19:01:32.184Z,3.07
2022-08-02T19:04:02.713Z,4.73
2022-08-02T19:06:31.399Z,2.50
2022-08-02T19:09:11.582Z,2.70
2022-08-02T19:11:47.234Z,2.87
2022-08-02T19:17:16.067Z,3.00
2022-08-02T19:19:56.054Z,3.23
2022-08-02T19:22:26.686Z,2.80
2022-08-02T19:25:16.024Z,2.93
2022-08-02T19:27:47.487Z,2.50
2022-08-02T19:30:18.258Z,2.40
2022-08-02T19:32:59.291Z,2.43
2022-08-02T19:35:34.398Z,2.43
2022-08-02T19:38:10.604Z,2.50
2022-08-02T19:40:41.734Z,2.93
2022-08-02T19:44:25.530Z,2.43
2022-08-02T19:46:00.271Z,2.20
2022-08-02T19:48:29.013Z,2.50
2022-08-02T19:51:00.556Z,3.10
2022-08-02T19:53:47.777Z,2.47
2022-08-02T19:56:21.000Z,2.50
2022-08-02T19:58:51.280Z,3.03
2022-08-02T20:01:28.044Z,2.60
2022-08-02T20:04:05.127Z,2.93
2022-08-02T20:06:33.238Z,2.60
2022-08-02T20:09:02.276Z,2.53
2022-08-02T20:11:34.700Z,2.73
2022-08-02T20:14:05.327Z,3.10
2022-08-02T20:16:35.614Z,2.83
2022-08-02T20:19:05.027Z,2.80
2022-08-02T20:21:35.764Z,2.77
2022-08-02T20:24:06.643Z,3.33
2022-08-02T20:26:35.471Z,2.50
2022-08-02T20:29:04.255Z,3.03
2022-08-02T20:31:32.479Z,4.00
2022-08-02T20:34:02.008Z,2.90
2022-08-02T20:36:30.199Z,2.83
2022-08-02T20:38:58.322Z,3.20
2022-08-02T20:41:37.007Z,3.40
2022-08-02T20:44:15.751Z,3.20
2022-08-02T20:46:44.685Z,3.63
2022-08-02T20:49:21.679Z,3.00
2022-08-02T20:51:53.894Z,3.13
2022-08-02T20:54:22.720Z,3.30
2022-08-02T20:56:51.219Z,2.97
2022-08-02T20:59:21.427Z,3.80
2022-08-02T21:01:57.012Z,3.40
2022-08-02T21:04:27.337Z,3.30
2022-08-02T21:06:59.085Z,3.50
2022-08-02T21:09:52.642Z,3.50
2022-08-02T21:12:15.913Z,3.57
2022-08-02T21:14:44.153Z,3.40
2022-08-02T21:17:18.027Z,3.50
2022-08-02T21:20:08.317Z,3.27
2022-08-02T21:22:36.530Z,3.30
2022-08-02T21:25:08.910Z,2.90
2022-08-02T21:27:53.164Z,3.40
2022-08-02T21:30:24.979Z,3.00
2022-08-02T21:32:54.767Z,4.10
2022-08-02T21:35:26.876Z,3.57
2022-08-02T21:37:58.176Z,2.67
2022-08-02T21:40:27.078Z,3.00
2022-08-02T21:42:55.305Z,3.70
2022-08-02T21:45:23.511Z,3.63
2022-08-02T21:47:51.757Z,3.90
2022-08-02T21:50:20.179Z,3.83
2022-08-02T21:52:51.998Z,4.10
2022-08-02T21:55:24.133Z,4.13
2022-08-02T21:58:09.662Z,3.60
2022-08-02T22:00:38.327Z,3.73
2022-08-02T22:03:22.582Z,3.23
2022-08-02T22:05:51.697Z,4.20
2022-08-02T22:08:21.193Z,4.93
2022-08-02T22:11:04.172Z,3.50
2022-08-02T22:13:47.240Z,3.70
2022-08-02T22:16:18.540Z,3.47
2022-08-02T22:18:51.333Z,4.10
2022-08-02T22:21:22.938Z,3.33
2022-08-02T22:23:53.972Z,3.50
2022-08-02T22:26:22.176Z,3.80
2022-08-02T22:28:59.315Z,3.67
2022-08-02T22:31:40.393Z,3.67
2022-08-02T22:34:11.646Z,3.27
2022-08-02T22:36:55.402Z,3.43
2022-08-02T22:39:24.918Z,3.37
2022-08-02T22:42:02.079Z,3.27
2022-08-02T22:44:35.842Z,4.17
2022-08-02T22:47:07.479Z,3.20
2022-08-02T22:49:51.573Z,3.53
2022-08-02T22:52:22.829Z,3.60
2022-08-02T22:54:54.824Z,3.40
2022-08-02T22:57:30.879Z,3.03
2022-08-02T22:58:58.667Z,2.50
2022-08-02T23:00:00.528Z,4.07
2022-08-02T23:02:29.962Z,3.27
2022-08-02T23:04:58.535Z,3.60
2022-08-02T23:07:26.696Z,3.40
2022-08-02T23:09:56.289Z,3.67
2022-08-02T23:12:24.605Z,3.70
2022-08-02T23:14:53.474Z,3.13
2022-08-02T23:17:39.199Z,3.70
2022-08-02T23:20:09.674Z,4.20
2022-08-02T23:22:38.080Z,3.13
2022-08-02T23:25:08.770Z,3.23
2022-08-02T23:27:37.154Z,3.80
2022-08-02T23:30:06.625Z,3.70
2022-08-02T23:32:34.843Z,3.80
2022-08-02T23:35:03.019Z,3.40
2022-08-02T23:37:58.059Z,3.37
2022-08-02T23:40:39.727Z,4.33
2022-08-02T23:43:13.488Z,3.50
2022-08-02T23:45:44.129Z,4.07
2022-08-02T23:48:12.341Z,3.50
2022-08-02T23:50:40.651Z,3.53
2022-08-02T23:53:08.805Z,3.53
2022-08-02T23:55:38.311Z,3.77
2022-08-02T23:58:06.460Z,3.67
